sensor_id;sensor_type;location;lat;lon;timestamp;P1;durP1;ratioP1;P2;durP2;ratioP2
75016;SDS011;63577;39.766;2.720;2023-06-22T00:01:21;23.50;;;7.30;;
75016;SDS011;63577;39.766;2.720;2023-06-22T00:03:50;24.30;;;8.40;;
75016;SDS011;63577;39.766;2.720;2023-06-22T00:06:15;21.20;;;8.70;;
75016;SDS011;63577;39.766;2.720;2023-06-22T00:08:41;27.00;;;8.70;;
75016;SDS011;63577;39.766;2.720;2023-06-22T00:11:06;18.50;;;7.60;;
75016;SDS011;63577;39.766;2.720;2023-06-22T00:13:32;22.10;;;7.70;;
75016;SDS011;63577;39.766;2.720;2023-06-22T00:15:57;23.40;;;7.70;;
75016;SDS011;63577;39.766;2.720;2023-06-22T00:18:22;23.10;;;8.50;;
75016;SDS011;63577;39.766;2.720;2023-06-22T00:20:53;24.30;;;8.60;;
75016;SDS011;63577;39.766;2.720;2023-06-22T00:23:22;21.80;;;7.80;;
75016;SDS011;63577;39.766;2.720;2023-06-22T00:25:49;18.10;;;8.00;;
75016;SDS011;63577;39.766;2.720;2023-06-22T00:28:14;22.10;;;8.40;;
75016;SDS011;63577;39.766;2.720;2023-06-22T00:30:40;26.40;;;8.10;;
75016;SDS011;63577;39.766;2.720;2023-06-22T00:33:05;23.10;;;8.10;;
75016;SDS011;63577;39.766;2.720;2023-06-22T00:35:33;21.40;;;7.30;;
75016;SDS011;63577;39.766;2.720;2023-06-22T00:37:59;22.40;;;7.20;;
75016;SDS011;63577;39.766;2.720;2023-06-22T00:40:29;25.00;;;7.90;;
75016;SDS011;63577;39.766;2.720;2023-06-22T00:42:55;22.70;;;7.90;;
75016;SDS011;63577;39.766;2.720;2023-06-22T00:45:21;20.50;;;8.20;;
75016;SDS011;63577;39.766;2.720;2023-06-22T00:47:49;22.00;;;7.40;;
75016;SDS011;63577;39.766;2.720;2023-06-22T00:50:17;23.30;;;8.00;;
75016;SDS011;63577;39.766;2.720;2023-06-22T00:52:43;19.80;;;7.40;;
75016;SDS011;63577;39.766;2.720;2023-06-22T00:55:09;23.30;;;7.40;;
75016;SDS011;63577;39.766;2.720;2023-06-22T00:57:34;21.20;;;7.90;;
75016;SDS011;63577;39.766;2.720;2023-06-22T01:00:02;23.80;;;8.70;;
75016;SDS011;63577;39.766;2.720;2023-06-22T01:02:31;26.20;;;8.30;;
75016;SDS011;63577;39.766;2.720;2023-06-22T01:04:57;20.90;;;8.10;;
75016;SDS011;63577;39.766;2.720;2023-06-22T01:12:19;21.40;;;8.40;;
75016;SDS011;63577;39.766;2.720;2023-06-22T01:14:47;21.80;;;8.50;;
75016;SDS011;63577;39.766;2.720;2023-06-22T01:17:14;24.70;;;8.50;;
75016;SDS011;63577;39.766;2.720;2023-06-22T01:19:49;24.70;;;7.30;;
75016;SDS011;63577;39.766;2.720;2023-06-22T01:22:20;22.00;;;7.60;;
75016;SDS011;63577;39.766;2.720;2023-06-22T01:27:40;19.90;;;8.20;;
75016;SDS011;63577;39.766;2.720;2023-06-22T01:30:13;18.10;;;7.20;;
75016;SDS011;63577;39.766;2.720;2023-06-22T01:32:39;22.60;;;8.30;;
75016;SDS011;63577;39.766;2.720;2023-06-22T01:35:06;22.20;;;8.30;;
75016;SDS011;63577;39.766;2.720;2023-06-22T01:37:32;20.80;;;7.50;;
75016;SDS011;63577;39.766;2.720;2023-06-22T01:39:58;21.60;;;7.80;;
75016;SDS011;63577;39.766;2.720;2023-06-22T01:42:24;20.10;;;8.10;;
75016;SDS011;63577;39.766;2.720;2023-06-22T01:44:50;20.50;;;7.90;;
75016;SDS011;63577;39.766;2.720;2023-06-22T01:47:16;22.40;;;7.20;;
75016;SDS011;63577;39.766;2.720;2023-06-22T01:49:42;20.90;;;8.40;;
75016;SDS011;63577;39.766;2.720;2023-06-22T01:52:08;20.50;;;7.40;;
75016;SDS011;63577;39.766;2.720;2023-06-22T01:54:34;21.60;;;7.20;;
75016;SDS011;63577;39.766;2.720;2023-06-22T01:56:59;19.80;;;8.10;;
75016;SDS011;63577;39.766;2.720;2023-06-22T01:59:34;21.20;;;8.20;;
75016;SDS011;63577;39.766;2.720;2023-06-22T02:02:03;16.10;;;7.10;;
75016;SDS011;63577;39.766;2.720;2023-06-22T02:04:35;22.10;;;7.70;;
75016;SDS011;63577;39.766;2.720;2023-06-22T02:07:01;19.70;;;8.00;;
75016;SDS011;63577;39.766;2.720;2023-06-22T02:11:56;20.70;;;8.10;;
75016;SDS011;63577;39.766;2.720;2023-06-22T02:14:22;19.70;;;7.60;;
75016;SDS011;63577;39.766;2.720;2023-06-22T02:16:48;22.30;;;7.80;;
75016;SDS011;63577;39.766;2.720;2023-06-22T02:19:14;19.60;;;8.20;;
75016;SDS011;63577;39.766;2.720;2023-06-22T02:21:41;19.30;;;8.10;;
75016;SDS011;63577;39.766;2.720;2023-06-22T02:24:06;18.30;;;7.10;;
75016;SDS011;63577;39.766;2.720;2023-06-22T02:26:31;17.60;;;6.70;;
75016;SDS011;63577;39.766;2.720;2023-06-22T02:28:57;16.80;;;7.10;;
75016;SDS011;63577;39.766;2.720;2023-06-22T02:31:23;22.20;;;7.70;;
75016;SDS011;63577;39.766;2.720;2023-06-22T02:33:57;17.90;;;7.50;;
75016;SDS011;63577;39.766;2.720;2023-06-22T02:36:23;18.20;;;7.50;;
75016;SDS011;63577;39.766;2.720;2023-06-22T02:38:49;17.60;;;7.90;;
75016;SDS011;63577;39.766;2.720;2023-06-22T02:41:14;17.30;;;7.20;;
75016;SDS011;63577;39.766;2.720;2023-06-22T02:43:44;18.50;;;7.40;;
75016;SDS011;63577;39.766;2.720;2023-06-22T02:46:09;19.00;;;6.90;;
75016;SDS011;63577;39.766;2.720;2023-06-22T02:48:35;17.70;;;8.10;;
75016;SDS011;63577;39.766;2.720;2023-06-22T02:51:00;19.50;;;7.70;;
75016;SDS011;63577;39.766;2.720;2023-06-22T02:53:25;18.20;;;6.90;;
75016;SDS011;63577;39.766;2.720;2023-06-22T02:55:51;16.30;;;7.50;;
75016;SDS011;63577;39.766;2.720;2023-06-22T02:58:16;18.60;;;6.60;;
75016;SDS011;63577;39.766;2.720;2023-06-22T03:00:41;15.60;;;6.40;;
75016;SDS011;63577;39.766;2.720;2023-06-22T03:03:07;20.30;;;6.80;;
75016;SDS011;63577;39.766;2.720;2023-06-22T03:05:32;15.20;;;7.30;;
75016;SDS011;63577;39.766;2.720;2023-06-22T03:07:57;19.40;;;7.30;;
75016;SDS011;63577;39.766;2.720;2023-06-22T03:10:23;15.30;;;7.20;;
75016;SDS011;63577;39.766;2.720;2023-06-22T03:12:48;17.00;;;7.10;;
75016;SDS011;63577;39.766;2.720;2023-06-22T03:15:14;16.20;;;7.10;;
75016;SDS011;63577;39.766;2.720;2023-06-22T03:17:39;19.90;;;8.00;;
75016;SDS011;63577;39.766;2.720;2023-06-22T03:20:06;17.30;;;6.70;;
75016;SDS011;63577;39.766;2.720;2023-06-22T03:22:40;16.60;;;6.80;;
75016;SDS011;63577;39.766;2.720;2023-06-22T03:25:06;16.10;;;7.40;;
75016;SDS011;63577;39.766;2.720;2023-06-22T03:27:38;20.30;;;8.60;;
75016;SDS011;63577;39.766;2.720;2023-06-22T03:30:03;19.10;;;7.00;;
75016;SDS011;63577;39.766;2.720;2023-06-22T03:32:29;16.80;;;8.20;;
75016;SDS011;63577;39.766;2.720;2023-06-22T03:34:54;19.10;;;8.00;;
75016;SDS011;63577;39.766;2.720;2023-06-22T03:37:26;20.80;;;8.20;;
75016;SDS011;63577;39.766;2.720;2023-06-22T03:39:52;18.90;;;7.40;;
75016;SDS011;63577;39.766;2.720;2023-06-22T03:42:18;18.60;;;7.40;;
75016;SDS011;63577;39.766;2.720;2023-06-22T03:44:43;23.80;;;8.20;;
75016;SDS011;63577;39.766;2.720;2023-06-22T03:47:09;20.10;;;8.10;;
75016;SDS011;63577;39.766;2.720;2023-06-22T03:49:35;23.00;;;8.00;;
75016;SDS011;63577;39.766;2.720;2023-06-22T03:52:00;22.10;;;8.10;;
75016;SDS011;63577;39.766;2.720;2023-06-22T03:54:27;18.40;;;8.10;;
75016;SDS011;63577;39.766;2.720;2023-06-22T03:56:53;18.00;;;7.70;;
75016;SDS011;63577;39.766;2.720;2023-06-22T03:59:18;18.50;;;7.70;;
75016;SDS011;63577;39.766;2.720;2023-06-22T04:01:43;16.40;;;7.60;;
75016;SDS011;63577;39.766;2.720;2023-06-22T04:04:09;18.10;;;8.90;;
75016;SDS011;63577;39.766;2.720;2023-06-22T04:06:35;18.80;;;8.40;;
75016;SDS011;63577;39.766;2.720;2023-06-22T04:09:00;21.30;;;7.70;;
75016;SDS011;63577;39.766;2.720;2023-06-22T04:11:25;18.90;;;8.40;;
75016;SDS011;63577;39.766;2.720;2023-06-22T04:13:51;18.50;;;7.10;;
75016;SDS011;63577;39.766;2.720;2023-06-22T04:16:16;20.80;;;8.20;;
75016;SDS011;63577;39.766;2.720;2023-06-22T04:18:42;19.80;;;7.50;;
75016;SDS011;63577;39.766;2.720;2023-06-22T04:21:07;18.80;;;9.20;;
75016;SDS011;63577;39.766;2.720;2023-06-22T04:23:32;20.50;;;8.40;;
75016;SDS011;63577;39.766;2.720;2023-06-22T04:25:58;20.70;;;8.40;;
75016;SDS011;63577;39.766;2.720;2023-06-22T04:28:24;18.60;;;8.00;;
75016;SDS011;63577;39.766;2.720;2023-06-22T04:30:50;19.40;;;7.60;;
75016;SDS011;63577;39.766;2.720;2023-06-22T04:33:16;24.30;;;8.60;;
75016;SDS011;63577;39.766;2.720;2023-06-22T04:35:42;19.20;;;8.70;;
75016;SDS011;63577;39.766;2.720;2023-06-22T04:38:12;21.40;;;7.50;;
75016;SDS011;63577;39.766;2.720;2023-06-22T04:40:41;19.20;;;7.20;;
75016;SDS011;63577;39.766;2.720;2023-06-22T04:43:06;20.50;;;7.90;;
75016;SDS011;63577;39.766;2.720;2023-06-22T04:45:34;17.60;;;7.50;;
75016;SDS011;63577;39.766;2.720;2023-06-22T04:48:03;18.10;;;7.00;;
75016;SDS011;63577;39.766;2.720;2023-06-22T04:50:28;17.70;;;7.20;;
75016;SDS011;63577;39.766;2.720;2023-06-22T04:52:53;20.80;;;8.30;;
75016;SDS011;63577;39.766;2.720;2023-06-22T04:55:19;19.00;;;8.20;;
75016;SDS011;63577;39.766;2.720;2023-06-22T04:57:45;21.70;;;7.70;;
75016;SDS011;63577;39.766;2.720;2023-06-22T05:00:22;21.60;;;8.60;;
75016;SDS011;63577;39.766;2.720;2023-06-22T05:02:48;22.80;;;9.00;;
75016;SDS011;63577;39.766;2.720;2023-06-22T05:05:14;21.00;;;8.20;;
75016;SDS011;63577;39.766;2.720;2023-06-22T05:10:08;20.70;;;8.50;;
75016;SDS011;63577;39.766;2.720;2023-06-22T05:12:34;23.20;;;8.20;;
75016;SDS011;63577;39.766;2.720;2023-06-22T05:15:00;18.40;;;8.30;;
75016;SDS011;63577;39.766;2.720;2023-06-22T05:17:26;21.70;;;8.20;;
75016;SDS011;63577;39.766;2.720;2023-06-22T05:19:52;20.00;;;8.90;;
75016;SDS011;63577;39.766;2.720;2023-06-22T05:22:17;25.20;;;9.30;;
75016;SDS011;63577;39.766;2.720;2023-06-22T05:24:43;20.50;;;9.10;;
75016;SDS011;63577;39.766;2.720;2023-06-22T05:27:09;22.50;;;8.60;;
75016;SDS011;63577;39.766;2.720;2023-06-22T05:29:34;24.90;;;9.10;;
75016;SDS011;63577;39.766;2.720;2023-06-22T05:32:00;27.50;;;10.00;;
75016;SDS011;63577;39.766;2.720;2023-06-22T05:34:25;24.40;;;10.30;;
75016;SDS011;63577;39.766;2.720;2023-06-22T05:36:51;21.30;;;9.50;;
75016;SDS011;63577;39.766;2.720;2023-06-22T05:39:17;22.40;;;9.90;;
75016;SDS011;63577;39.766;2.720;2023-06-22T05:41:42;21.00;;;8.70;;
75016;SDS011;63577;39.766;2.720;2023-06-22T05:44:08;21.00;;;9.40;;
75016;SDS011;63577;39.766;2.720;2023-06-22T05:46:33;24.90;;;9.10;;
75016;SDS011;63577;39.766;2.720;2023-06-22T05:48:59;24.10;;;9.30;;
75016;SDS011;63577;39.766;2.720;2023-06-22T05:51:24;21.00;;;8.40;;
75016;SDS011;63577;39.766;2.720;2023-06-22T05:53:49;23.30;;;9.00;;
75016;SDS011;63577;39.766;2.720;2023-06-22T05:56:15;23.60;;;9.00;;
75016;SDS011;63577;39.766;2.720;2023-06-22T05:58:41;24.80;;;10.40;;
75016;SDS011;63577;39.766;2.720;2023-06-22T06:01:06;24.20;;;8.90;;
75016;SDS011;63577;39.766;2.720;2023-06-22T06:03:31;21.00;;;8.70;;
75016;SDS011;63577;39.766;2.720;2023-06-22T06:05:57;27.70;;;9.70;;
75016;SDS011;63577;39.766;2.720;2023-06-22T06:08:22;23.00;;;10.00;;
75016;SDS011;63577;39.766;2.720;2023-06-22T06:10:47;24.40;;;9.60;;
75016;SDS011;63577;39.766;2.720;2023-06-22T06:13:13;23.70;;;8.70;;
75016;SDS011;63577;39.766;2.720;2023-06-22T06:15:39;23.10;;;9.50;;
75016;SDS011;63577;39.766;2.720;2023-06-22T06:18:04;24.30;;;8.90;;
75016;SDS011;63577;39.766;2.720;2023-06-22T06:20:30;25.40;;;10.20;;
75016;SDS011;63577;39.766;2.720;2023-06-22T06:22:56;26.00;;;9.10;;
75016;SDS011;63577;39.766;2.720;2023-06-22T06:25:21;30.20;;;11.00;;
75016;SDS011;63577;39.766;2.720;2023-06-22T06:27:48;23.10;;;8.80;;
75016;SDS011;63577;39.766;2.720;2023-06-22T06:30:14;23.00;;;8.60;;
75016;SDS011;63577;39.766;2.720;2023-06-22T06:32:40;24.40;;;10.70;;
75016;SDS011;63577;39.766;2.720;2023-06-22T06:35:06;28.80;;;10.30;;
75016;SDS011;63577;39.766;2.720;2023-06-22T06:37:32;25.30;;;9.40;;
75016;SDS011;63577;39.766;2.720;2023-06-22T06:39:58;23.10;;;9.80;;
75016;SDS011;63577;39.766;2.720;2023-06-22T06:42:23;28.20;;;10.20;;
75016;SDS011;63577;39.766;2.720;2023-06-22T06:44:49;23.20;;;9.60;;
75016;SDS011;63577;39.766;2.720;2023-06-22T06:47:15;24.70;;;10.10;;
75016;SDS011;63577;39.766;2.720;2023-06-22T06:49:42;30.30;;;11.50;;
75016;SDS011;63577;39.766;2.720;2023-06-22T06:52:07;34.40;;;11.60;;
75016;SDS011;63577;39.766;2.720;2023-06-22T06:54:33;29.70;;;13.30;;
75016;SDS011;63577;39.766;2.720;2023-06-22T06:56:58;25.90;;;10.40;;
75016;SDS011;63577;39.766;2.720;2023-06-22T06:59:23;23.10;;;9.90;;
75016;SDS011;63577;39.766;2.720;2023-06-22T07:01:49;27.20;;;10.60;;
75016;SDS011;63577;39.766;2.720;2023-06-22T07:04:14;27.90;;;11.00;;
75016;SDS011;63577;39.766;2.720;2023-06-22T07:06:40;28.50;;;11.90;;
75016;SDS011;63577;39.766;2.720;2023-06-22T07:09:05;28.40;;;11.60;;
75016;SDS011;63577;39.766;2.720;2023-06-22T07:11:30;28.70;;;12.50;;
75016;SDS011;63577;39.766;2.720;2023-06-22T07:13:56;28.90;;;12.80;;
75016;SDS011;63577;39.766;2.720;2023-06-22T07:16:21;25.60;;;9.60;;
75016;SDS011;63577;39.766;2.720;2023-06-22T07:18:48;26.50;;;10.60;;
75016;SDS011;63577;39.766;2.720;2023-06-22T07:21:13;25.10;;;10.60;;
75016;SDS011;63577;39.766;2.720;2023-06-22T07:23:38;24.40;;;10.00;;
75016;SDS011;63577;39.766;2.720;2023-06-22T07:26:04;23.70;;;10.60;;
75016;SDS011;63577;39.766;2.720;2023-06-22T07:28:31;24.60;;;10.50;;
75016;SDS011;63577;39.766;2.720;2023-06-22T07:31:02;30.00;;;11.00;;
75016;SDS011;63577;39.766;2.720;2023-06-22T07:33:29;27.20;;;10.50;;
75016;SDS011;63577;39.766;2.720;2023-06-22T07:35:54;36.10;;;18.00;;
75016;SDS011;63577;39.766;2.720;2023-06-22T07:38:19;29.00;;;13.60;;
75016;SDS011;63577;39.766;2.720;2023-06-22T07:40:45;27.40;;;11.50;;
75016;SDS011;63577;39.766;2.720;2023-06-22T07:43:10;24.10;;;10.40;;
75016;SDS011;63577;39.766;2.720;2023-06-22T07:45:37;25.80;;;10.90;;
75016;SDS011;63577;39.766;2.720;2023-06-22T07:48:04;25.50;;;11.10;;
75016;SDS011;63577;39.766;2.720;2023-06-22T07:50:29;24.40;;;11.60;;
75016;SDS011;63577;39.766;2.720;2023-06-22T07:52:56;27.10;;;10.30;;
75016;SDS011;63577;39.766;2.720;2023-06-22T07:55:21;22.90;;;10.20;;
75016;SDS011;63577;39.766;2.720;2023-06-22T07:57:48;23.20;;;10.10;;
75016;SDS011;63577;39.766;2.720;2023-06-22T08:00:14;20.20;;;9.00;;
75016;SDS011;63577;39.766;2.720;2023-06-22T08:02:42;25.00;;;9.50;;
75016;SDS011;63577;39.766;2.720;2023-06-22T08:05:08;19.40;;;7.90;;
75016;SDS011;63577;39.766;2.720;2023-06-22T08:07:37;17.50;;;7.50;;
75016;SDS011;63577;39.766;2.720;2023-06-22T08:10:09;21.70;;;8.20;;
75016;SDS011;63577;39.766;2.720;2023-06-22T08:12:35;22.40;;;9.30;;
75016;SDS011;63577;39.766;2.720;2023-06-22T08:15:00;23.40;;;9.00;;
75016;SDS011;63577;39.766;2.720;2023-06-22T08:17:26;21.10;;;9.00;;
75016;SDS011;63577;39.766;2.720;2023-06-22T08:19:51;23.00;;;8.10;;
75016;SDS011;63577;39.766;2.720;2023-06-22T08:22:16;21.30;;;8.80;;
75016;SDS011;63577;39.766;2.720;2023-06-22T08:24:42;23.40;;;9.10;;
75016;SDS011;63577;39.766;2.720;2023-06-22T08:27:09;21.90;;;8.70;;
75016;SDS011;63577;39.766;2.720;2023-06-22T08:29:34;20.10;;;9.20;;
75016;SDS011;63577;39.766;2.720;2023-06-22T08:32:00;26.90;;;10.00;;
75016;SDS011;63577;39.766;2.720;2023-06-22T08:34:26;21.00;;;8.70;;
75016;SDS011;63577;39.766;2.720;2023-06-22T08:36:53;21.90;;;8.30;;
75016;SDS011;63577;39.766;2.720;2023-06-22T08:39:19;24.30;;;8.60;;
75016;SDS011;63577;39.766;2.720;2023-06-22T08:41:45;21.00;;;7.50;;
75016;SDS011;63577;39.766;2.720;2023-06-22T08:44:11;22.30;;;9.00;;
75016;SDS011;63577;39.766;2.720;2023-06-22T08:46:36;24.80;;;8.60;;
75016;SDS011;63577;39.766;2.720;2023-06-22T08:49:03;18.80;;;7.80;;
75016;SDS011;63577;39.766;2.720;2023-06-22T08:51:29;20.50;;;7.60;;
75016;SDS011;63577;39.766;2.720;2023-06-22T08:53:54;23.10;;;8.10;;
75016;SDS011;63577;39.766;2.720;2023-06-22T08:56:20;25.20;;;7.80;;
75016;SDS011;63577;39.766;2.720;2023-06-22T08:58:45;23.00;;;8.40;;
75016;SDS011;63577;39.766;2.720;2023-06-22T09:01:10;20.30;;;7.70;;
75016;SDS011;63577;39.766;2.720;2023-06-22T09:03:36;21.60;;;7.70;;
75016;SDS011;63577;39.766;2.720;2023-06-22T09:06:02;22.20;;;7.60;;
75016;SDS011;63577;39.766;2.720;2023-06-22T09:08:28;18.30;;;6.60;;
75016;SDS011;63577;39.766;2.720;2023-06-22T09:10:53;17.60;;;6.90;;
75016;SDS011;63577;39.766;2.720;2023-06-22T09:13:19;22.90;;;8.00;;
75016;SDS011;63577;39.766;2.720;2023-06-22T09:15:44;21.40;;;6.90;;
75016;SDS011;63577;39.766;2.720;2023-06-22T09:18:10;17.70;;;7.90;;
75016;SDS011;63577;39.766;2.720;2023-06-22T09:20:36;18.40;;;8.60;;
75016;SDS011;63577;39.766;2.720;2023-06-22T09:23:01;26.70;;;8.60;;
75016;SDS011;63577;39.766;2.720;2023-06-22T09:25:26;22.10;;;8.40;;
75016;SDS011;63577;39.766;2.720;2023-06-22T09:27:52;20.50;;;8.30;;
75016;SDS011;63577;39.766;2.720;2023-06-22T09:30:18;16.90;;;8.10;;
75016;SDS011;63577;39.766;2.720;2023-06-22T09:32:44;20.30;;;9.50;;
75016;SDS011;63577;39.766;2.720;2023-06-22T09:35:09;20.00;;;8.70;;
75016;SDS011;63577;39.766;2.720;2023-06-22T09:37:35;16.90;;;8.40;;
75016;SDS011;63577;39.766;2.720;2023-06-22T09:40:01;14.20;;;6.90;;
75016;SDS011;63577;39.766;2.720;2023-06-22T09:42:29;17.80;;;6.80;;
75016;SDS011;63577;39.766;2.720;2023-06-22T09:44:55;15.80;;;6.50;;
75016;SDS011;63577;39.766;2.720;2023-06-22T09:47:20;16.80;;;6.60;;
75016;SDS011;63577;39.766;2.720;2023-06-22T09:49:45;18.90;;;7.40;;
75016;SDS011;63577;39.766;2.720;2023-06-22T09:52:11;19.50;;;7.30;;
75016;SDS011;63577;39.766;2.720;2023-06-22T09:54:36;15.40;;;6.50;;
75016;SDS011;63577;39.766;2.720;2023-06-22T09:57:02;11.30;;;6.10;;
75016;SDS011;63577;39.766;2.720;2023-06-22T09:59:27;12.60;;;4.60;;
75016;SDS011;63577;39.766;2.720;2023-06-22T10:01:52;11.10;;;4.90;;
75016;SDS011;63577;39.766;2.720;2023-06-22T10:04:18;11.20;;;5.10;;
75016;SDS011;63577;39.766;2.720;2023-06-22T10:06:43;10.00;;;4.10;;
75016;SDS011;63577;39.766;2.720;2023-06-22T10:09:09;12.90;;;4.40;;
75016;SDS011;63577;39.766;2.720;2023-06-22T10:11:34;10.90;;;3.90;;
75016;SDS011;63577;39.766;2.720;2023-06-22T10:14:00;12.60;;;4.60;;
75016;SDS011;63577;39.766;2.720;2023-06-22T10:16:32;9.90;;;3.90;;
75016;SDS011;63577;39.766;2.720;2023-06-22T10:19:00;11.40;;;4.40;;
75016;SDS011;63577;39.766;2.720;2023-06-22T10:21:26;9.70;;;4.10;;
75016;SDS011;63577;39.766;2.720;2023-06-22T10:23:53;8.30;;;4.00;;
75016;SDS011;63577;39.766;2.720;2023-06-22T10:26:18;10.80;;;4.40;;
75016;SDS011;63577;39.766;2.720;2023-06-22T10:28:44;9.70;;;4.20;;
75016;SDS011;63577;39.766;2.720;2023-06-22T10:31:09;11.10;;;3.70;;
75016;SDS011;63577;39.766;2.720;2023-06-22T10:33:34;7.40;;;2.60;;
75016;SDS011;63577;39.766;2.720;2023-06-22T10:36:00;6.00;;;2.80;;
75016;SDS011;63577;39.766;2.720;2023-06-22T10:38:25;6.20;;;2.70;;
75016;SDS011;63577;39.766;2.720;2023-06-22T10:40:50;6.60;;;2.90;;
75016;SDS011;63577;39.766;2.720;2023-06-22T10:43:16;11.00;;;4.20;;
75016;SDS011;63577;39.766;2.720;2023-06-22T10:45:41;8.10;;;3.10;;
75016;SDS011;63577;39.766;2.720;2023-06-22T10:48:06;10.80;;;3.10;;
75016;SDS011;63577;39.766;2.720;2023-06-22T10:50:32;7.10;;;3.40;;
75016;SDS011;63577;39.766;2.720;2023-06-22T10:52:57;8.20;;;3.30;;
75016;SDS011;63577;39.766;2.720;2023-06-22T10:55:22;8.80;;;3.40;;
75016;SDS011;63577;39.766;2.720;2023-06-22T10:57:48;8.20;;;3.20;;
75016;SDS011;63577;39.766;2.720;2023-06-22T11:00:14;7.30;;;3.40;;
75016;SDS011;63577;39.766;2.720;2023-06-22T11:02:40;7.40;;;3.20;;
75016;SDS011;63577;39.766;2.720;2023-06-22T11:05:06;7.60;;;3.10;;
75016;SDS011;63577;39.766;2.720;2023-06-22T11:07:31;7.00;;;3.10;;
75016;SDS011;63577;39.766;2.720;2023-06-22T11:09:57;6.40;;;3.00;;
75016;SDS011;63577;39.766;2.720;2023-06-22T11:12:23;8.00;;;2.90;;
75016;SDS011;63577;39.766;2.720;2023-06-22T11:14:48;8.70;;;2.70;;
75016;SDS011;63577;39.766;2.720;2023-06-22T11:17:16;8.20;;;2.80;;
75016;SDS011;63577;39.766;2.720;2023-06-22T11:19:42;6.50;;;3.10;;
75016;SDS011;63577;39.766;2.720;2023-06-22T11:22:07;6.70;;;2.50;;
75016;SDS011;63577;39.766;2.720;2023-06-22T11:24:32;6.20;;;2.80;;
75016;SDS011;63577;39.766;2.720;2023-06-22T11:26:58;5.00;;;2.10;;
75016;SDS011;63577;39.766;2.720;2023-06-22T11:29:23;4.70;;;2.50;;
75016;SDS011;63577;39.766;2.720;2023-06-22T11:31:49;4.90;;;2.40;;
75016;SDS011;63577;39.766;2.720;2023-06-22T11:34:14;6.30;;;2.60;;
75016;SDS011;63577;39.766;2.720;2023-06-22T11:36:40;6.70;;;2.50;;
75016;SDS011;63577;39.766;2.720;2023-06-22T11:39:07;7.80;;;2.70;;
75016;SDS011;63577;39.766;2.720;2023-06-22T11:41:34;6.90;;;2.80;;
75016;SDS011;63577;39.766;2.720;2023-06-22T11:44:00;6.80;;;2.90;;
75016;SDS011;63577;39.766;2.720;2023-06-22T11:46:25;4.70;;;2.30;;
75016;SDS011;63577;39.766;2.720;2023-06-22T11:48:51;5.10;;;2.70;;
75016;SDS011;63577;39.766;2.720;2023-06-22T11:51:16;5.10;;;2.50;;
75016;SDS011;63577;39.766;2.720;2023-06-22T11:53:41;7.20;;;2.60;;
75016;SDS011;63577;39.766;2.720;2023-06-22T11:56:06;8.40;;;2.80;;
75016;SDS011;63577;39.766;2.720;2023-06-22T11:58:32;7.60;;;3.20;;
75016;SDS011;63577;39.766;2.720;2023-06-22T12:00:57;7.30;;;3.10;;
75016;SDS011;63577;39.766;2.720;2023-06-22T12:03:22;6.50;;;2.70;;
75016;SDS011;63577;39.766;2.720;2023-06-22T12:05:49;8.40;;;2.70;;
75016;SDS011;63577;39.766;2.720;2023-06-22T12:08:14;7.70;;;3.20;;
75016;SDS011;63577;39.766;2.720;2023-06-22T12:10:40;6.70;;;3.00;;
75016;SDS011;63577;39.766;2.720;2023-06-22T12:13:05;6.70;;;2.90;;
75016;SDS011;63577;39.766;2.720;2023-06-22T12:15:30;8.30;;;2.80;;
75016;SDS011;63577;39.766;2.720;2023-06-22T12:17:56;9.00;;;2.90;;
75016;SDS011;63577;39.766;2.720;2023-06-22T12:20:21;7.60;;;2.90;;
75016;SDS011;63577;39.766;2.720;2023-06-22T12:22:46;8.30;;;3.00;;
75016;SDS011;63577;39.766;2.720;2023-06-22T12:25:12;9.20;;;3.70;;
75016;SDS011;63577;39.766;2.720;2023-06-22T12:27:38;7.00;;;3.20;;
75016;SDS011;63577;39.766;2.720;2023-06-22T12:30:03;9.50;;;3.80;;
75016;SDS011;63577;39.766;2.720;2023-06-22T12:32:29;7.10;;;3.40;;
75016;SDS011;63577;39.766;2.720;2023-06-22T12:34:55;8.00;;;3.60;;
75016;SDS011;63577;39.766;2.720;2023-06-22T12:37:21;5.90;;;3.10;;
75016;SDS011;63577;39.766;2.720;2023-06-22T12:39:46;7.70;;;3.30;;
75016;SDS011;63577;39.766;2.720;2023-06-22T12:42:11;6.40;;;3.10;;
75016;SDS011;63577;39.766;2.720;2023-06-22T12:44:38;8.00;;;3.30;;
75016;SDS011;63577;39.766;2.720;2023-06-22T12:47:03;9.10;;;3.60;;
75016;SDS011;63577;39.766;2.720;2023-06-22T12:49:29;6.80;;;3.30;;
75016;SDS011;63577;39.766;2.720;2023-06-22T12:51:54;7.80;;;3.50;;
75016;SDS011;63577;39.766;2.720;2023-06-22T12:54:20;7.70;;;3.40;;
75016;SDS011;63577;39.766;2.720;2023-06-22T12:56:45;9.60;;;3.30;;
75016;SDS011;63577;39.766;2.720;2023-06-22T12:59:10;6.70;;;3.10;;
75016;SDS011;63577;39.766;2.720;2023-06-22T13:01:36;7.10;;;3.10;;
75016;SDS011;63577;39.766;2.720;2023-06-22T13:04:02;7.90;;;2.90;;
75016;SDS011;63577;39.766;2.720;2023-06-22T13:06:27;9.90;;;3.60;;
75016;SDS011;63577;39.766;2.720;2023-06-22T13:08:53;7.00;;;2.90;;
75016;SDS011;63577;39.766;2.720;2023-06-22T13:11:18;7.50;;;3.20;;
75016;SDS011;63577;39.766;2.720;2023-06-22T13:13:44;7.40;;;3.00;;
75016;SDS011;63577;39.766;2.720;2023-06-22T13:16:09;6.00;;;3.00;;
75016;SDS011;63577;39.766;2.720;2023-06-22T13:18:35;7.10;;;2.80;;
75016;SDS011;63577;39.766;2.720;2023-06-22T13:21:01;7.20;;;3.20;;
75016;SDS011;63577;39.766;2.720;2023-06-22T13:23:26;6.90;;;2.70;;
75016;SDS011;63577;39.766;2.720;2023-06-22T13:25:52;7.30;;;2.70;;
75016;SDS011;63577;39.766;2.720;2023-06-22T13:28:17;7.60;;;3.10;;
75016;SDS011;63577;39.766;2.720;2023-06-22T13:30:43;8.00;;;3.00;;
75016;SDS011;63577;39.766;2.720;2023-06-22T13:33:11;6.80;;;2.60;;
75016;SDS011;63577;39.766;2.720;2023-06-22T13:35:36;7.30;;;3.20;;
75016;SDS011;63577;39.766;2.720;2023-06-22T13:38:02;7.30;;;2.60;;
75016;SDS011;63577;39.766;2.720;2023-06-22T13:40:28;6.40;;;3.30;;
75016;SDS011;63577;39.766;2.720;2023-06-22T13:42:53;7.90;;;2.90;;
75016;SDS011;63577;39.766;2.720;2023-06-22T13:45:19;7.70;;;3.20;;
75016;SDS011;63577;39.766;2.720;2023-06-22T13:47:45;6.50;;;2.90;;
75016;SDS011;63577;39.766;2.720;2023-06-22T13:50:10;7.60;;;3.00;;
75016;SDS011;63577;39.766;2.720;2023-06-22T13:52:38;8.00;;;2.80;;
75016;SDS011;63577;39.766;2.720;2023-06-22T13:55:03;9.00;;;3.10;;
75016;SDS011;63577;39.766;2.720;2023-06-22T13:57:29;6.70;;;3.00;;
75016;SDS011;63577;39.766;2.720;2023-06-22T13:59:55;7.90;;;3.40;;
75016;SDS011;63577;39.766;2.720;2023-06-22T14:02:20;7.00;;;3.20;;
75016;SDS011;63577;39.766;2.720;2023-06-22T14:04:45;7.80;;;3.00;;
75016;SDS011;63577;39.766;2.720;2023-06-22T14:07:11;9.10;;;3.30;;
75016;SDS011;63577;39.766;2.720;2023-06-22T14:09:36;7.60;;;3.10;;
75016;SDS011;63577;39.766;2.720;2023-06-22T14:12:05;6.90;;;3.30;;
75016;SDS011;63577;39.766;2.720;2023-06-22T14:14:32;6.90;;;3.10;;
75016;SDS011;63577;39.766;2.720;2023-06-22T14:16:58;6.80;;;2.70;;
75016;SDS011;63577;39.766;2.720;2023-06-22T14:19:23;6.80;;;3.20;;
75016;SDS011;63577;39.766;2.720;2023-06-22T14:21:49;6.60;;;2.80;;
75016;SDS011;63577;39.766;2.720;2023-06-22T14:24:14;8.90;;;2.90;;
75016;SDS011;63577;39.766;2.720;2023-06-22T14:26:39;7.80;;;2.90;;
75016;SDS011;63577;39.766;2.720;2023-06-22T14:29:05;8.30;;;4.00;;
75016;SDS011;63577;39.766;2.720;2023-06-22T14:31:30;7.40;;;3.30;;
75016;SDS011;63577;39.766;2.720;2023-06-22T14:33:55;6.30;;;3.30;;
75016;SDS011;63577;39.766;2.720;2023-06-22T14:36:21;7.80;;;2.90;;
75016;SDS011;63577;39.766;2.720;2023-06-22T14:38:46;7.70;;;2.70;;
75016;SDS011;63577;39.766;2.720;2023-06-22T14:41:12;7.80;;;2.90;;